createdAt,value
2022-10-19T00:01:29.016Z,18.32
2022-10-19T00:03:59.989Z,18.32
2022-10-19T00:06:33.233Z,18.31
2022-10-19T00:09:08.575Z,18.30
2022-10-19T00:11:41.465Z,18.29
2022-10-19T00:14:14.175Z,18.27
2022-10-19T00:16:44.430Z,18.26
2022-10-19T00:19:17.225Z,18.24
2022-10-19T00:21:47.423Z,18.25
2022-10-19T00:24:20.001Z,18.25
2022-10-19T00:26:49.867Z,18.28
2022-10-19T00:29:20.412Z,18.28
2022-10-19T00:31:51.981Z,18.23
2022-10-19T00:34:23.306Z,18.22
2022-10-19T00:36:53.160Z,18.23
2022-10-19T00:39:25.574Z,18.21
2022-10-19T00:41:55.389Z,18.21
2022-10-19T00:44:55.517Z,18.16
2022-10-19T00:47:27.023Z,18.16
2022-10-19T00:49:57.696Z,18.17
2022-10-19T00:52:29.150Z,18.18
2022-10-19T00:55:02.794Z,18.17
2022-10-19T00:57:34.692Z,18.19
2022-10-19T01:00:07.939Z,18.17
2022-10-19T01:02:38.261Z,18.18
2022-10-19T01:05:11.999Z,18.14
2022-10-19T01:07:41.870Z,18.16
2022-10-19T01:10:15.577Z,18.13
2022-10-19T01:12:59.312Z,18.12
2022-10-19T01:15:39.206Z,18.13
2022-10-19T01:18:17.564Z,18.12
2022-10-19T01:21:11.425Z,18.12
2022-10-19T01:24:03.911Z,18.09
2022-10-19T01:27:16.087Z,18.06
2022-10-19T01:30:10.097Z,18.03
2022-10-19T01:32:55.933Z,18.03
2022-10-19T01:35:34.194Z,18.02
2022-10-19T01:38:25.083Z,18.04
2022-10-19T01:41:01.400Z,18.06
2022-10-19T01:43:39.740Z,18.06
2022-10-19T01:46:16.533Z,18.07
2022-10-19T01:48:53.625Z,18.07
2022-10-19T01:51:29.279Z,18.10
2022-10-19T01:54:06.340Z,18.10
2022-10-19T01:56:39.451Z,18.12
2022-10-19T01:59:12.335Z,18.14
2022-10-19T02:01:49.037Z,18.13
2022-10-19T02:04:25.684Z,18.11
2022-10-19T02:06:58.061Z,18.09
2022-10-19T02:09:28.125Z,18.10
2022-10-19T02:12:02.273Z,18.09
2022-10-19T02:14:36.861Z,18.12
2022-10-19T02:17:12.282Z,18.13
2022-10-19T02:19:43.013Z,18.16
2022-10-19T02:22:14.517Z,18.16
2022-10-19T02:24:44.307Z,18.16
2022-10-19T02:27:14.298Z,18.15
2022-10-19T02:29:44.450Z,18.14
2022-10-19T02:32:17.096Z,18.14
2022-10-19T02:34:46.993Z,18.17
2022-10-19T02:37:18.940Z,18.16
2022-10-19T02:39:50.816Z,18.15
2022-10-19T02:42:27.693Z,18.15
2022-10-19T02:45:02.925Z,18.11
2022-10-19T02:47:40.365Z,18.08
2022-10-19T02:50:12.200Z,18.08
2022-10-19T02:52:43.128Z,18.06
2022-10-19T02:55:13.602Z,18.03
2022-10-19T02:57:43.567Z,18.01
2022-10-19T03:00:14.909Z,17.99
2022-10-19T03:02:48.486Z,17.96
2022-10-19T03:05:18.662Z,17.95
2022-10-19T03:07:48.570Z,17.89
2022-10-19T03:10:18.537Z,17.84
2022-10-19T03:12:51.236Z,17.85
2022-10-19T03:15:24.775Z,17.85
2022-10-19T03:17:59.005Z,17.85
2022-10-19T03:20:29.026Z,17.88
2022-10-19T03:23:01.486Z,17.87
2022-10-19T03:25:31.244Z,17.84
2022-10-19T03:28:01.456Z,17.81
2022-10-19T03:30:31.191Z,17.83
2022-10-19T03:33:03.615Z,17.78
2022-10-19T03:35:33.559Z,17.79
2022-10-19T03:38:03.426Z,17.81
2022-10-19T03:40:33.336Z,17.79
2022-10-19T03:43:03.173Z,17.80
2022-10-19T03:45:33.020Z,17.83
2022-10-19T03:48:05.472Z,17.79
2022-10-19T03:50:35.292Z,17.78
2022-10-19T03:53:05.039Z,17.78
2022-10-19T03:55:34.919Z,17.80
2022-10-19T03:58:04.824Z,17.76
2022-10-19T04:00:34.636Z,17.73
2022-10-19T04:03:07.115Z,17.68
2022-10-19T04:05:36.995Z,17.67
2022-10-19T04:08:07.243Z,17.66
2022-10-19T04:10:37.155Z,17.67
2022-10-19T04:13:06.968Z,17.69
2022-10-19T04:15:36.783Z,17.68
2022-10-19T04:18:09.337Z,17.66
2022-10-19T04:20:42.800Z,17.68
2022-10-19T04:23:12.642Z,17.68
2022-10-19T04:25:42.446Z,17.69
2022-10-19T04:28:12.461Z,17.71
2022-10-19T04:30:42.313Z,17.73
2022-10-19T04:33:14.826Z,17.70
2022-10-19T04:35:44.639Z,17.70
2022-10-19T04:38:14.411Z,17.66
2022-10-19T04:40:44.255Z,17.62
2022-10-19T04:43:14.346Z,17.60
2022-10-19T04:45:44.120Z,17.61
2022-10-19T04:48:16.558Z,17.62
2022-10-19T04:50:46.452Z,17.66
2022-10-19T04:55:54.623Z,17.63
2022-10-19T04:58:24.457Z,17.64
2022-10-19T05:00:54.324Z,17.64
2022-10-19T05:03:26.726Z,17.63
2022-10-19T05:05:56.474Z,17.62
2022-10-19T05:08:26.249Z,17.58
2022-10-19T05:10:56.078Z,17.56
2022-10-19T05:13:25.856Z,17.58
2022-10-19T05:15:59.831Z,17.58
2022-10-19T05:18:32.405Z,17.60
2022-10-19T05:21:06.545Z,17.62
2022-10-19T05:23:37.283Z,17.60
2022-10-19T05:26:09.254Z,17.58
2022-10-19T05:28:39.681Z,17.56
2022-10-19T05:31:12.660Z,17.54
2022-10-19T05:33:45.784Z,17.53
2022-10-19T05:36:18.038Z,17.49
2022-10-19T05:38:49.506Z,17.44
2022-10-19T05:41:19.929Z,17.39
2022-10-19T05:43:55.583Z,17.41
2022-10-19T05:46:26.352Z,17.39
2022-10-19T05:49:00.002Z,17.38
2022-10-19T05:51:30.968Z,17.42
2022-10-19T05:54:00.967Z,17.44
2022-10-19T05:56:32.554Z,17.46
2022-10-19T05:59:04.529Z,17.47
2022-10-19T06:01:35.227Z,17.46
2022-10-19T06:04:08.025Z,17.45
2022-10-19T06:06:38.073Z,17.45
2022-10-19T06:09:08.105Z,17.45
2022-10-19T06:11:40.105Z,17.44
2022-10-19T06:14:13.944Z,17.46
2022-10-19T06:16:46.234Z,17.50
2022-10-19T06:19:18.895Z,17.52
2022-10-19T06:21:48.778Z,17.54
2022-10-19T06:24:18.558Z,17.57
2022-10-19T06:26:48.399Z,17.60
2022-10-19T06:29:36.787Z,17.63
2022-10-19T06:32:06.927Z,17.65
2022-10-19T06:34:39.254Z,17.63
2022-10-19T06:37:09.242Z,17.63
2022-10-19T06:39:39.110Z,17.63
2022-10-19T06:42:09.654Z,17.64
2022-10-19T06:44:39.408Z,17.66
2022-10-19T06:47:09.234Z,17.66
2022-10-19T06:49:41.690Z,17.63
2022-10-19T06:52:11.685Z,17.64
2022-10-19T06:54:41.460Z,17.67
2022-10-19T06:57:11.379Z,17.69
2022-10-19T06:59:41.311Z,17.70
2022-10-19T07:02:13.112Z,17.69
2022-10-19T07:04:45.465Z,17.71
2022-10-19T07:07:15.493Z,17.76
2022-10-19T07:09:45.286Z,17.81
2022-10-19T07:12:15.177Z,17.85
2022-10-19T07:14:44.994Z,17.85
2022-10-19T07:17:15.243Z,17.84
2022-10-19T07:19:47.638Z,17.84
2022-10-19T07:22:22.172Z,17.89
2022-10-19T07:24:55.575Z,17.92
2022-10-19T07:27:25.426Z,17.98
2022-10-19T07:29:55.225Z,18.04
2022-10-19T07:32:25.012Z,18.08
2022-10-19T07:34:57.484Z,18.12
2022-10-19T07:37:27.487Z,18.16
2022-10-19T07:39:57.451Z,18.22
2022-10-19T07:42:27.568Z,18.25
2022-10-19T07:44:57.356Z,18.25
2022-10-19T07:47:27.302Z,18.25
2022-10-19T07:49:59.869Z,18.24
2022-10-19T07:52:31.821Z,18.30
2022-10-19T07:55:04.212Z,18.32
2022-10-19T07:57:34.240Z,18.32
2022-10-19T08:00:04.284Z,18.32
2022-10-19T08:02:54.883Z,18.40
2022-10-19T08:05:34.840Z,18.48
2022-10-19T08:08:05.189Z,18.56
2022-10-19T08:10:35.075Z,18.60
2022-10-19T08:13:04.918Z,18.58
2022-10-19T08:15:34.734Z,18.55
2022-10-19T08:18:04.756Z,18.50
2022-10-19T08:20:37.178Z,18.41
2022-10-19T08:26:14.554Z,18.30
2022-10-19T08:28:44.523Z,18.21
2022-10-19T08:31:16.155Z,18.14
2022-10-19T08:33:46.609Z,18.15
2022-10-19T08:36:19.726Z,18.12
2022-10-19T08:38:49.972Z,18.13
2022-10-19T08:41:35.552Z,18.13
2022-10-19T08:44:40.211Z,18.18
2022-10-19T08:47:23.622Z,18.26
2022-10-19T08:49:53.940Z,18.40
2022-10-19T08:52:34.403Z,18.53
2022-10-19T08:55:06.179Z,18.69
2022-10-19T08:57:45.024Z,18.86
2022-10-19T09:00:22.325Z,19.08
2022-10-19T09:03:07.116Z,19.35
2022-10-19T09:05:46.181Z,19.63
2022-10-19T09:08:20.613Z,19.82
2022-10-19T09:10:53.365Z,19.93
2022-10-19T09:13:41.713Z,20.06
2022-10-19T09:16:28.100Z,20.13
2022-10-19T09:18:57.879Z,20.02
2022-10-19T09:21:43.292Z,19.99
2022-10-19T09:24:31.545Z,20.28
2022-10-19T09:27:03.896Z,20.78
2022-10-19T09:29:41.719Z,21.08
2022-10-19T09:32:18.214Z,21.46
2022-10-19T09:34:52.737Z,21.93
2022-10-19T09:37:26.522Z,22.38
2022-10-19T09:39:59.332Z,22.54
2022-10-19T09:42:33.734Z,22.68
2022-10-19T09:45:14.200Z,22.88
2022-10-19T09:47:48.686Z,23.18
2022-10-19T09:50:21.898Z,23.49
2022-10-19T09:52:52.998Z,23.71
2022-10-19T09:55:32.418Z,24.10
2022-10-19T09:58:05.318Z,24.47
2022-10-19T10:00:38.419Z,25.17
2022-10-19T10:03:10.386Z,25.49
2022-10-19T10:05:42.638Z,25.22
2022-10-19T10:08:17.727Z,25.14
2022-10-19T10:11:05.431Z,25.57
2022-10-19T10:13:40.249Z,25.95
2022-10-19T10:16:12.303Z,25.62
2022-10-19T10:18:54.135Z,24.99
2022-10-19T10:21:26.247Z,24.26
2022-10-19T10:24:05.905Z,23.53
2022-10-19T10:26:41.871Z,23.08
2022-10-19T10:29:23.773Z,23.39
2022-10-19T10:31:56.584Z,24.51
2022-10-19T10:34:50.071Z,25.44
2022-10-19T10:37:24.763Z,25.63
2022-10-19T10:39:59.084Z,25.86
2022-10-19T10:42:39.382Z,27.13
2022-10-19T10:45:20.489Z,29.15
2022-10-19T10:47:51.309Z,29.33
2022-10-19T10:50:24.912Z,29.35
2022-10-19T10:53:00.996Z,30.99
2022-10-19T10:55:31.910Z,32.72
2022-10-19T10:58:17.629Z,33.42
2022-10-19T11:00:48.399Z,34.65
2022-10-19T11:03:22.940Z,36.18
2022-10-19T11:05:58.933Z,36.06
2022-10-19T11:08:34.973Z,33.80
2022-10-19T11:11:14.255Z,31.28
2022-10-19T11:13:54.261Z,29.15
2022-10-19T11:16:29.780Z,27.60
2022-10-19T11:19:04.981Z,26.48
2022-10-19T11:21:40.504Z,25.76
2022-10-19T11:24:18.446Z,25.20
2022-10-19T11:27:02.334Z,26.70
2022-10-19T11:29:59.523Z,28.77
2022-10-19T11:32:38.218Z,28.21
2022-10-19T11:35:23.822Z,26.95
2022-10-19T11:38:21.364Z,25.88
2022-10-19T11:41:17.404Z,24.98
2022-10-19T11:43:59.196Z,24.26
2022-10-19T11:46:38.025Z,23.70
2022-10-19T11:49:22.204Z,23.29
2022-10-19T11:51:57.639Z,23.17
2022-10-19T11:54:41.139Z,23.26
2022-10-19T11:57:18.944Z,23.06
2022-10-19T12:00:14.985Z,22.97
2022-10-19T12:03:18.091Z,24.61
2022-10-19T12:06:01.295Z,27.18
2022-10-19T12:08:49.112Z,26.89
2022-10-19T12:11:31.011Z,26.15
2022-10-19T12:14:07.143Z,25.35
2022-10-19T12:16:40.943Z,24.55
2022-10-19T12:19:21.389Z,23.84
2022-10-19T12:21:53.184Z,23.35
2022-10-19T12:24:26.502Z,22.92
2022-10-19T12:26:57.495Z,22.58
2022-10-19T12:29:30.913Z,22.25
2022-10-19T12:32:02.573Z,22.03
2022-10-19T12:34:45.327Z,21.80
2022-10-19T12:37:22.698Z,21.68
2022-10-19T12:39:56.430Z,22.14
2022-10-19T12:42:31.586Z,23.53
2022-10-19T12:45:17.002Z,23.94
2022-10-19T12:48:19.557Z,23.68
2022-10-19T12:51:09.012Z,23.33
2022-10-19T12:53:41.572Z,23.25
2022-10-19T12:56:16.275Z,23.16
2022-10-19T12:58:54.466Z,23.03
2022-10-19T13:01:29.873Z,22.91
2022-10-19T13:04:14.682Z,22.97
2022-10-19T13:06:49.418Z,23.22
2022-10-19T13:09:27.491Z,23.78
2022-10-19T13:12:27.395Z,23.73
2022-10-19T13:14:58.467Z,23.35
2022-10-19T13:17:44.173Z,22.90
2022-10-19T13:20:50.743Z,22.55
2022-10-19T13:23:45.399Z,22.34
2022-10-19T13:26:36.070Z,22.04
2022-10-19T13:29:05.929Z,21.85
2022-10-19T13:31:37.540Z,21.66
2022-10-19T13:34:13.277Z,21.46
2022-10-19T13:37:02.348Z,21.33
2022-10-19T13:39:42.864Z,21.22
2022-10-19T13:42:26.537Z,21.13
2022-10-19T13:44:56.778Z,21.05
2022-10-19T13:50:38.611Z,20.92
2022-10-19T13:53:33.434Z,20.88
2022-10-19T13:56:28.820Z,20.82
2022-10-19T13:59:27.961Z,20.75
2022-10-19T14:02:34.358Z,20.68
2022-10-19T14:05:21.116Z,20.67
2022-10-19T14:08:06.154Z,20.65
2022-10-19T14:10:56.278Z,20.67
2022-10-19T14:13:29.554Z,20.74
2022-10-19T14:16:03.084Z,20.74
2022-10-19T14:18:34.186Z,20.79
2022-10-19T14:21:06.451Z,20.81
2022-10-19T14:23:38.240Z,20.80
2022-10-19T14:26:14.272Z,20.76
2022-10-19T14:28:46.906Z,20.73
2022-10-19T14:31:24.533Z,20.72
2022-10-19T14:33:56.593Z,20.69
2022-10-19T14:36:30.805Z,20.57
2022-10-19T14:39:00.734Z,20.51
2022-10-19T14:44:39.759Z,20.33
2022-10-19T14:47:24.082Z,20.24
2022-10-19T14:49:54.180Z,20.18
2022-10-19T14:52:31.072Z,20.11
2022-10-19T14:55:05.275Z,20.04
2022-10-19T14:57:38.556Z,19.97
2022-10-19T15:00:21.421Z,19.90
2022-10-19T15:02:58.825Z,19.86
2022-10-19T15:05:34.201Z,19.80
2022-10-19T15:08:11.360Z,19.75
2022-10-19T15:10:45.831Z,19.71
2022-10-19T15:13:26.772Z,19.61
2022-10-19T15:15:59.155Z,19.59
2022-10-19T15:18:48.288Z,19.58
2022-10-19T15:21:22.897Z,19.58
2022-10-19T15:23:54.596Z,19.55
2022-10-19T15:26:32.517Z,19.51
2022-10-19T15:29:13.643Z,19.48
2022-10-19T15:31:46.128Z,19.47
2022-10-19T15:34:25.694Z,19.43
2022-10-19T15:37:00.803Z,19.39
2022-10-19T15:39:42.187Z,19.33
2022-10-19T15:42:44.356Z,19.28
2022-10-19T15:45:36.213Z,19.21
2022-10-19T15:48:30.227Z,19.16
2022-10-19T15:51:00.506Z,19.11
2022-10-19T15:53:30.315Z,19.05
2022-10-19T15:58:58.654Z,18.99
2022-10-19T16:01:33.898Z,18.93
2022-10-19T16:04:09.019Z,18.91
2022-10-19T16:06:44.056Z,18.89
2022-10-19T16:09:20.478Z,18.81
2022-10-19T16:11:56.458Z,18.79
2022-10-19T16:14:31.937Z,18.73
2022-10-19T16:17:05.608Z,18.70
2022-10-19T16:19:41.802Z,18.63
2022-10-19T16:22:11.814Z,18.61
2022-10-19T16:24:42.415Z,18.58
2022-10-19T16:27:15.147Z,18.55
2022-10-19T16:29:45.933Z,18.52
2022-10-19T16:32:15.942Z,18.48
2022-10-19T16:34:49.325Z,18.45
2022-10-19T16:37:22.290Z,18.46
2022-10-19T16:39:52.124Z,18.42
2022-10-19T16:42:24.584Z,18.36
2022-10-19T16:44:55.561Z,18.34
2022-10-19T16:47:25.655Z,18.30
2022-10-19T16:50:03.782Z,18.28
2022-10-19T16:52:34.333Z,18.26
2022-10-19T16:55:05.396Z,18.22
2022-10-19T16:57:35.352Z,18.17
2022-10-19T17:00:05.601Z,18.14
2022-10-19T17:02:35.879Z,18.09
2022-10-19T17:05:08.846Z,18.05
2022-10-19T17:07:38.870Z,18.02
2022-10-19T17:10:09.476Z,17.98
2022-10-19T17:12:42.039Z,17.94
2022-10-19T17:18:03.209Z,17.91
2022-10-19T17:20:36.258Z,17.85
2022-10-19T17:23:06.720Z,17.83
2022-10-19T17:25:36.801Z,17.80
2022-10-19T17:28:06.943Z,17.77
2022-10-19T17:30:36.755Z,17.75
2022-10-19T17:33:09.785Z,17.72
2022-10-19T17:35:44.808Z,17.68
2022-10-19T17:38:14.964Z,17.68
2022-10-19T17:40:47.287Z,17.66
2022-10-19T17:43:17.189Z,17.63
2022-10-19T17:45:51.241Z,17.58
2022-10-19T17:48:23.771Z,17.57
2022-10-19T17:51:02.700Z,17.53
2022-10-19T17:53:33.895Z,17.52
2022-10-19T17:56:05.638Z,17.47
2022-10-19T17:58:39.740Z,17.49
2022-10-19T18:01:10.777Z,17.44
2022-10-19T18:03:42.392Z,17.42
2022-10-19T18:06:16.817Z,17.37
2022-10-19T18:08:49.723Z,17.34
2022-10-19T18:11:27.984Z,17.29
2022-10-19T18:14:00.735Z,17.25
2022-10-19T18:16:32.343Z,17.21
2022-10-19T18:19:05.387Z,17.20
2022-10-19T18:21:41.385Z,17.14
2022-10-19T18:24:15.372Z,17.11
2022-10-19T18:26:46.714Z,17.08
2022-10-19T18:29:20.089Z,17.07
2022-10-19T18:31:52.253Z,17.07
2022-10-19T18:34:23.881Z,17.04
2022-10-19T18:36:57.206Z,17.03
2022-10-19T18:39:27.316Z,17.03
2022-10-19T18:41:57.417Z,17.01
2022-10-19T18:44:29.566Z,16.99
2022-10-19T18:47:02.819Z,16.96
2022-10-19T18:49:32.648Z,16.91
2022-10-19T18:52:05.053Z,16.87
2022-10-19T18:54:34.901Z,16.85
2022-10-19T18:57:04.841Z,16.85
2022-10-19T18:59:34.788Z,16.83
2022-10-19T19:02:13.660Z,16.81
2022-10-19T19:04:53.152Z,16.85
2022-10-19T19:07:25.912Z,16.82
2022-10-19T19:09:55.709Z,16.83
2022-10-19T19:12:25.670Z,16.82
2022-10-19T19:14:55.468Z,16.79
2022-10-19T19:17:25.283Z,16.76
2022-10-19T19:19:55.222Z,16.73
2022-10-19T19:22:30.401Z,16.70
2022-10-19T19:25:00.287Z,16.69
2022-10-19T19:27:31.928Z,16.65
2022-10-19T19:30:04.807Z,16.62
2022-10-19T19:32:34.998Z,16.60
2022-10-19T19:35:05.380Z,16.58
2022-10-19T19:37:38.706Z,16.57
2022-10-19T19:40:11.902Z,16.53
2022-10-19T19:42:42.257Z,16.51
2022-10-19T19:45:13.572Z,16.47
2022-10-19T19:47:44.005Z,16.48
2022-10-19T19:50:13.813Z,16.47
2022-10-19T19:52:48.341Z,16.44
2022-10-19T19:55:18.261Z,16.43
2022-10-19T19:57:50.224Z,16.41
2022-10-19T20:00:20.179Z,16.40
2022-10-19T20:02:54.581Z,16.35
2022-10-19T20:05:25.061Z,16.32
2022-10-19T20:07:57.691Z,16.27
2022-10-19T20:10:27.847Z,16.24
2022-10-19T20:12:57.741Z,16.22
2022-10-19T20:15:27.564Z,16.18
2022-10-19T20:17:57.480Z,16.16
2022-10-19T20:20:27.320Z,16.12
2022-10-19T20:22:59.837Z,16.07
2022-10-19T20:25:29.747Z,16.06
2022-10-19T20:27:59.537Z,16.04
2022-10-19T20:30:29.300Z,16.01
2022-10-19T20:32:59.685Z,16.00
2022-10-19T20:35:29.522Z,15.98
2022-10-19T20:38:03.072Z,15.97
2022-10-19T20:40:33.055Z,15.96
2022-10-19T20:43:05.970Z,15.94
2022-10-19T20:45:35.807Z,15.92
2022-10-19T20:48:05.616Z,15.88
2022-10-19T20:50:35.735Z,15.87
2022-10-19T20:53:09.437Z,15.83
2022-10-19T20:55:39.216Z,15.83
2022-10-19T20:58:09.245Z,15.80
2022-10-19T21:00:41.435Z,15.79
2022-10-19T21:03:11.168Z,15.78
2022-10-19T21:05:41.184Z,15.73
2022-10-19T21:08:15.921Z,15.70
2022-10-19T21:10:45.772Z,15.70
2022-10-19T21:13:18.682Z,15.66
2022-10-19T21:15:54.632Z,15.64
2022-10-19T21:18:24.356Z,15.64
2022-10-19T21:20:57.305Z,15.64
2022-10-19T21:23:30.238Z,15.59
2022-10-19T21:26:00.144Z,15.58
2022-10-19T21:28:29.949Z,15.55
2022-10-19T21:30:59.992Z,15.52
2022-10-19T21:33:29.811Z,15.49
2022-10-19T21:35:59.765Z,15.46
2022-10-19T21:38:32.355Z,15.43
2022-10-19T21:41:03.447Z,15.42
2022-10-19T21:43:33.973Z,15.40
2022-10-19T21:46:05.069Z,15.39
2022-10-19T21:48:36.187Z,15.36
2022-10-19T21:51:19.853Z,15.33
2022-10-19T21:53:52.934Z,15.31
2022-10-19T21:56:22.776Z,15.27
2022-10-19T21:58:54.005Z,15.21
2022-10-19T22:01:25.927Z,15.18
2022-10-19T22:03:58.871Z,15.13
2022-10-19T22:06:30.440Z,15.10
2022-10-19T22:09:07.383Z,15.07
2022-10-19T22:11:37.380Z,15.09
2022-10-19T22:14:08.238Z,15.08
2022-10-19T22:16:38.064Z,15.06
2022-10-19T22:19:08.598Z,15.02
2022-10-19T22:24:15.649Z,14.99
2022-10-19T22:26:47.843Z,14.96
2022-10-19T22:29:17.662Z,14.97
2022-10-19T22:31:47.919Z,14.93
2022-10-19T22:34:21.570Z,14.91
2022-10-19T22:36:51.415Z,14.88
2022-10-19T22:39:26.997Z,14.82
2022-10-19T22:41:58.654Z,14.81
2022-10-19T22:44:28.434Z,14.78
2022-10-19T22:46:58.274Z,14.74
2022-10-19T22:49:29.919Z,14.73
2022-10-19T22:52:00.458Z,14.70
2022-10-19T22:54:32.920Z,14.68
2022-10-19T22:57:02.989Z,14.68
2022-10-19T22:59:33.211Z,14.66
2022-10-19T23:02:03.678Z,14.64
2022-10-19T23:04:33.791Z,14.65
2022-10-19T23:07:03.636Z,14.64
2022-10-19T23:09:36.024Z,14.61
2022-10-19T23:12:05.986Z,14.62
2022-10-19T23:14:35.873Z,14.58
2022-10-19T23:17:05.633Z,14.56
2022-10-19T23:19:38.466Z,14.52
2022-10-19T23:22:08.505Z,14.47
2022-10-19T23:24:42.962Z,14.44
2022-10-19T23:27:12.777Z,14.41
2022-10-19T23:29:42.621Z,14.36
2022-10-19T23:32:12.632Z,14.31
2022-10-19T23:34:44.557Z,14.27
2022-10-19T23:37:17.519Z,14.26
2022-10-19T23:39:49.825Z,14.24
2022-10-19T23:42:19.841Z,14.24
2022-10-19T23:44:49.683Z,14.22
2022-10-19T23:47:19.527Z,14.21
2022-10-19T23:49:49.377Z,14.20
2022-10-19T23:52:19.195Z,14.20
2022-10-19T23:54:54.202Z,14.17
2022-10-19T23:57:24.071Z,14.18
2022-10-19T23:59:53.851Z,14.18
